sensor_id;sensor_type;location;lat;lon;timestamp;pressure;altitude;pressure_sealevel;temperature
64296;BMP280;51082;38.236;15.432;2023-03-26T00:00:09;101405.59;;;15.11
64296;BMP280;51082;38.236;15.432;2023-03-26T00:01:14;101400.75;;;15.14
64296;BMP280;51082;38.236;15.432;2023-03-26T00:02:16;101407.22;;;15.18
64296;BMP280;51082;38.236;15.432;2023-03-26T00:03:19;101411.25;;;15.14
64296;BMP280;51082;38.236;15.432;2023-03-26T00:04:20;101398.75;;;15.10
64296;BMP280;51082;38.236;15.432;2023-03-26T00:05:27;101401.16;;;15.11
64296;BMP280;51082;38.236;15.432;2023-03-26T00:06:30;101398.34;;;15.13
64296;BMP280;51082;38.236;15.432;2023-03-26T00:07:34;101396.34;;;15.15
64296;BMP280;51082;38.236;15.432;2023-03-26T00:08:36;101389.06;;;15.17
64296;BMP280;51082;38.236;15.432;2023-03-26T00:09:40;101393.28;;;15.18
64296;BMP280;51082;38.236;15.432;2023-03-26T00:10:42;101394.91;;;15.19
64296;BMP280;51082;38.236;15.432;2023-03-26T00:11:45;101384.22;;;15.14
64296;BMP280;51082;38.236;15.432;2023-03-26T00:12:46;101383.81;;;15.17
64296;BMP280;51082;38.236;15.432;2023-03-26T00:13:50;101378.56;;;15.17
64296;BMP280;51082;38.236;15.432;2023-03-26T00:14:53;101373.91;;;15.19
64296;BMP280;51082;38.236;15.432;2023-03-26T00:15:56;101371.28;;;15.19
64296;BMP280;51082;38.236;15.432;2023-03-26T00:16:57;101366.88;;;15.19
64296;BMP280;51082;38.236;15.432;2023-03-26T00:18:00;101354.56;;;15.13
64296;BMP280;51082;38.236;15.432;2023-03-26T00:19:02;101342.06;;;14.95
64296;BMP280;51082;38.236;15.432;2023-03-26T00:20:06;101325.34;;;14.90
64296;BMP280;51082;38.236;15.432;2023-03-26T00:21:12;101326.78;;;14.92
64296;BMP280;51082;38.236;15.432;2023-03-26T00:22:15;101323.53;;;14.90
64296;BMP280;51082;38.236;15.432;2023-03-26T00:23:17;101321.31;;;14.94
64296;BMP280;51082;38.236;15.432;2023-03-26T00:24:20;101327.75;;;14.91
64296;BMP280;51082;38.236;15.432;2023-03-26T00:25:22;101324.94;;;14.93
64296;BMP280;51082;38.236;15.432;2023-03-26T00:26:25;101320.50;;;14.93
64296;BMP280;51082;38.236;15.432;2023-03-26T00:27:26;101322.72;;;14.96
64296;BMP280;51082;38.236;15.432;2023-03-26T00:28:29;101319.13;;;14.97
64296;BMP280;51082;38.236;15.432;2023-03-26T00:29:31;101309.00;;;15.01
64296;BMP280;51082;38.236;15.432;2023-03-26T00:30:35;101313.44;;;15.07
64296;BMP280;51082;38.236;15.432;2023-03-26T00:31:37;101314.63;;;15.05
64296;BMP280;51082;38.236;15.432;2023-03-26T00:32:41;101311.59;;;15.01
64296;BMP280;51082;38.236;15.432;2023-03-26T00:33:43;101316.03;;;15.00
64296;BMP280;51082;38.236;15.432;2023-03-26T00:34:45;101314.22;;;15.01
64296;BMP280;51082;38.236;15.432;2023-03-26T00:35:51;101317.25;;;15.05
64296;BMP280;51082;38.236;15.432;2023-03-26T00:36:55;101308.38;;;15.06
64296;BMP280;51082;38.236;15.432;2023-03-26T00:38:02;101318.28;;;15.04
64296;BMP280;51082;38.236;15.432;2023-03-26T00:39:04;101318.84;;;15.06
64296;BMP280;51082;38.236;15.432;2023-03-26T00:40:09;101322.91;;;15.08
64296;BMP280;51082;38.236;15.432;2023-03-26T00:41:12;101320.88;;;15.10
64296;BMP280;51082;38.236;15.432;2023-03-26T00:42:22;101326.94;;;15.11
64296;BMP280;51082;38.236;15.432;2023-03-26T00:43:24;101322.09;;;15.14
64296;BMP280;51082;38.236;15.432;2023-03-26T00:44:27;101337.84;;;15.08
64296;BMP280;51082;38.236;15.432;2023-03-26T00:45:28;101330.19;;;15.06
64296;BMP280;51082;38.236;15.432;2023-03-26T00:46:31;101334.22;;;15.09
64296;BMP280;51082;38.236;15.432;2023-03-26T00:47:33;101332.38;;;15.09
64296;BMP280;51082;38.236;15.432;2023-03-26T00:48:36;101332.19;;;15.11
64296;BMP280;51082;38.236;15.432;2023-03-26T00:49:39;101329.34;;;15.12
64296;BMP280;51082;38.236;15.432;2023-03-26T00:50:43;101329.56;;;15.11
64296;BMP280;51082;38.236;15.432;2023-03-26T00:51:45;101321.69;;;15.11
64296;BMP280;51082;38.236;15.432;2023-03-26T00:52:49;101326.53;;;15.14
64296;BMP280;51082;38.236;15.432;2023-03-26T00:53:52;101324.13;;;15.12
64296;BMP280;51082;38.236;15.432;2023-03-26T00:54:54;101328.16;;;15.15
64296;BMP280;51082;38.236;15.432;2023-03-26T00:55:56;101335.81;;;15.16
64296;BMP280;51082;38.236;15.432;2023-03-26T00:57:00;101335.41;;;15.19
64296;BMP280;51082;38.236;15.432;2023-03-26T00:58:02;101347.09;;;15.17
64296;BMP280;51082;38.236;15.432;2023-03-26T00:59:04;101368.28;;;15.09
64296;BMP280;51082;38.236;15.432;2023-03-26T01:00:09;101357.22;;;15.07
64296;BMP280;51082;38.236;15.432;2023-03-26T01:01:18;101371.75;;;15.03
64296;BMP280;51082;38.236;15.432;2023-03-26T01:02:21;101364.44;;;15.05
64296;BMP280;51082;38.236;15.432;2023-03-26T01:03:26;101355.56;;;15.06
64296;BMP280;51082;38.236;15.432;2023-03-26T01:04:30;101344.88;;;15.14
64296;BMP280;51082;38.236;15.432;2023-03-26T01:05:46;101349.16;;;15.15
64296;BMP280;51082;38.236;15.432;2023-03-26T01:06:48;101354.78;;;15.12
64296;BMP280;51082;38.236;15.432;2023-03-26T01:07:53;101353.16;;;15.11
64296;BMP280;51082;38.236;15.432;2023-03-26T01:08:55;101351.53;;;15.16
64296;BMP280;51082;38.236;15.432;2023-03-26T01:10:00;101350.94;;;15.21
64296;BMP280;51082;38.236;15.432;2023-03-26T01:11:05;101362.03;;;15.16
64296;BMP280;51082;38.236;15.432;2023-03-26T01:12:15;101362.84;;;15.17
64296;BMP280;51082;38.236;15.432;2023-03-26T01:13:19;101364.06;;;15.21
64296;BMP280;51082;38.236;15.432;2023-03-26T01:14:23;101373.31;;;15.17
64296;BMP280;51082;38.236;15.432;2023-03-26T01:15:25;101360.41;;;15.22
64296;BMP280;51082;38.236;15.432;2023-03-26T01:16:33;101369.31;;;15.21
64296;BMP280;51082;38.236;15.432;2023-03-26T01:17:37;101362.00;;;15.23
64296;BMP280;51082;38.236;15.432;2023-03-26T01:18:43;101359.81;;;15.26
64296;BMP280;51082;38.236;15.432;2023-03-26T01:19:48;101363.03;;;15.28
64296;BMP280;51082;38.236;15.432;2023-03-26T01:20:54;101366.25;;;15.30
64296;BMP280;51082;38.236;15.432;2023-03-26T01:22:06;101370.28;;;15.33
64296;BMP280;51082;38.236;15.432;2023-03-26T01:23:15;101370.50;;;15.32
64296;BMP280;51082;38.236;15.432;2023-03-26T01:24:21;101373.50;;;15.35
64296;BMP280;51082;38.236;15.432;2023-03-26T01:25:24;101376.53;;;15.32
64296;BMP280;51082;38.236;15.432;2023-03-26T01:26:42;101376.53;;;15.32
64296;BMP280;51082;38.236;15.432;2023-03-26T01:27:50;101375.94;;;15.30
64296;BMP280;51082;38.236;15.432;2023-03-26T01:28:55;101379.56;;;15.29
64296;BMP280;51082;38.236;15.432;2023-03-26T01:30:01;101371.88;;;15.27
64296;BMP280;51082;38.236;15.432;2023-03-26T01:31:09;101373.31;;;15.30
64296;BMP280;51082;38.236;15.432;2023-03-26T01:32:26;101368.06;;;15.30
64296;BMP280;51082;38.236;15.432;2023-03-26T01:33:35;101370.06;;;15.28
64296;BMP280;51082;38.236;15.432;2023-03-26T01:34:51;101374.50;;;15.27
64296;BMP280;51082;38.236;15.432;2023-03-26T01:36:00;101365.25;;;15.25
64296;BMP280;51082;38.236;15.432;2023-03-26T01:37:11;101361.84;;;15.24
64296;BMP280;51082;38.236;15.432;2023-03-26T01:38:23;101366.28;;;15.24
64296;BMP280;51082;38.236;15.432;2023-03-26T01:39:34;101363.03;;;15.22
64296;BMP280;51082;38.236;15.432;2023-03-26T01:40:42;101371.28;;;15.19
64296;BMP280;51082;38.236;15.432;2023-03-26T01:41:48;101360.41;;;15.22
64296;BMP280;51082;38.236;15.432;2023-03-26T01:42:57;101353.34;;;15.22
64296;BMP280;51082;38.236;15.432;2023-03-26T01:44:06;101352.53;;;15.22
64296;BMP280;51082;38.236;15.432;2023-03-26T01:45:14;101346.91;;;15.25
64296;BMP280;51082;38.236;15.432;2023-03-26T01:46:20;101344.88;;;15.27
64296;BMP280;51082;38.236;15.432;2023-03-26T01:47:22;101342.25;;;15.27
64296;BMP280;51082;38.236;15.432;2023-03-26T01:48:30;101332.78;;;15.26
64296;BMP280;51082;38.236;15.432;2023-03-26T01:49:34;101339.03;;;15.25
64296;BMP280;51082;38.236;15.432;2023-03-26T01:50:36;101344.28;;;15.25
64296;BMP280;51082;38.236;15.432;2023-03-26T01:51:40;101337.41;;;15.24
64296;BMP280;51082;38.236;15.432;2023-03-26T01:52:42;101336.78;;;15.22
64296;BMP280;51082;38.236;15.432;2023-03-26T01:53:46;101345.06;;;15.19
64296;BMP280;51082;38.236;15.432;2023-03-26T01:54:50;101337.03;;;15.14
64296;BMP280;51082;38.236;15.432;2023-03-26T01:56:00;101342.69;;;15.11
64296;BMP280;51082;38.236;15.432;2023-03-26T01:57:07;101333.19;;;15.10
64296;BMP280;51082;38.236;15.432;2023-03-26T01:58:18;101331.97;;;15.06
64296;BMP280;51082;38.236;15.432;2023-03-26T01:59:42;101337.81;;;15.01
64296;BMP280;51082;38.236;15.432;2023-03-26T02:00:50;101328.56;;;14.98
64296;BMP280;51082;38.236;15.432;2023-03-26T02:01:58;101325.53;;;14.95
64296;BMP280;51082;38.236;15.432;2023-03-26T02:03:14;101325.16;;;14.91
64296;BMP280;51082;38.236;15.432;2023-03-26T02:04:23;101315.66;;;14.90
64296;BMP280;51082;38.236;15.432;2023-03-26T02:05:30;101318.09;;;14.85
64296;BMP280;51082;38.236;15.432;2023-03-26T02:06:38;101323.34;;;14.85
64296;BMP280;51082;38.236;15.432;2023-03-26T02:07:47;101310.84;;;14.81
64296;BMP280;51082;38.236;15.432;2023-03-26T02:08:52;101313.69;;;14.79
64296;BMP280;51082;38.236;15.432;2023-03-26T02:10:00;101312.03;;;14.78
64296;BMP280;51082;38.236;15.432;2023-03-26T02:11:08;101309.22;;;14.80
64296;BMP280;51082;38.236;15.432;2023-03-26T02:12:12;101310.03;;;14.80
64296;BMP280;51082;38.236;15.432;2023-03-26T02:13:16;101314.25;;;14.81
64296;BMP280;51082;38.236;15.432;2023-03-26T02:14:17;101316.09;;;14.81
64296;BMP280;51082;38.236;15.432;2023-03-26T02:15:21;101316.66;;;14.83
64296;BMP280;51082;38.236;15.432;2023-03-26T02:16:23;101320.09;;;14.83
64296;BMP280;51082;38.236;15.432;2023-03-26T02:17:25;101320.09;;;14.83
64296;BMP280;51082;38.236;15.432;2023-03-26T02:18:30;101325.53;;;14.82
64296;BMP280;51082;38.236;15.432;2023-03-26T02:19:39;101326.56;;;14.74
64296;BMP280;51082;38.236;15.432;2023-03-26T02:20:42;101325.34;;;14.70
64296;BMP280;51082;38.236;15.432;2023-03-26T02:21:45;101318.09;;;14.65
64296;BMP280;51082;38.236;15.432;2023-03-26T02:22:49;101320.50;;;14.60
64296;BMP280;51082;38.236;15.432;2023-03-26T02:23:53;101318.06;;;14.59
64296;BMP280;51082;38.236;15.432;2023-03-26T02:25:05;101323.72;;;14.56
64296;BMP280;51082;38.236;15.432;2023-03-26T02:26:09;101320.50;;;14.54
64296;BMP280;51082;38.236;15.432;2023-03-26T02:27:11;101318.88;;;14.53
64296;BMP280;51082;38.236;15.432;2023-03-26T02:28:14;101319.28;;;14.50
64296;BMP280;51082;38.236;15.432;2023-03-26T02:29:17;101322.09;;;14.48
64296;BMP280;51082;38.236;15.432;2023-03-26T02:30:21;101318.03;;;14.46
64296;BMP280;51082;38.236;15.432;2023-03-26T02:31:25;101311.59;;;14.42
64296;BMP280;51082;38.236;15.432;2023-03-26T02:32:28;101324.50;;;14.36
64296;BMP280;51082;38.236;15.432;2023-03-26T02:33:31;101318.66;;;14.34
64296;BMP280;51082;38.236;15.432;2023-03-26T02:34:34;101313.81;;;14.31
64296;BMP280;51082;38.236;15.432;2023-03-26T02:35:36;101320.22;;;14.29
64296;BMP280;51082;38.236;15.432;2023-03-26T02:36:40;101312.97;;;14.24
64296;BMP280;51082;38.236;15.432;2023-03-26T02:37:43;101313.56;;;14.20
64296;BMP280;51082;38.236;15.432;2023-03-26T02:38:46;101309.94;;;14.14
64296;BMP280;51082;38.236;15.432;2023-03-26T02:39:48;101305.06;;;14.11
64296;BMP280;51082;38.236;15.432;2023-03-26T02:40:52;101307.31;;;14.07
64296;BMP280;51082;38.236;15.432;2023-03-26T02:41:54;101306.69;;;14.05
64296;BMP280;51082;38.236;15.432;2023-03-26T02:42:57;101304.88;;;14.06
64296;BMP280;51082;38.236;15.432;2023-03-26T02:43:58;101307.88;;;14.03
64296;BMP280;51082;38.236;15.432;2023-03-26T02:45:01;101309.28;;;13.99
64296;BMP280;51082;38.236;15.432;2023-03-26T02:46:03;101297.41;;;13.96
64296;BMP280;51082;38.236;15.432;2023-03-26T02:47:06;101305.03;;;13.98
64296;BMP280;51082;38.236;15.432;2023-03-26T02:48:08;101302.84;;;13.95
64296;BMP280;51082;38.236;15.432;2023-03-26T02:49:10;101302.63;;;13.90
64296;BMP280;51082;38.236;15.432;2023-03-26T02:50:12;101299.38;;;13.88
64296;BMP280;51082;38.236;15.432;2023-03-26T02:51:16;101294.53;;;13.85
64296;BMP280;51082;38.236;15.432;2023-03-26T02:52:19;101296.09;;;13.79
64296;BMP280;51082;38.236;15.432;2023-03-26T02:53:22;101289.69;;;13.82
64296;BMP280;51082;38.236;15.432;2023-03-26T02:54:29;101290.88;;;13.79
64296;BMP280;51082;38.236;15.432;2023-03-26T02:55:32;101287.69;;;13.77
64296;BMP280;51082;38.236;15.432;2023-03-26T02:56:35;101294.09;;;13.74
64296;BMP280;51082;38.236;15.432;2023-03-26T02:57:38;101289.25;;;13.71
64296;BMP280;51082;38.236;15.432;2023-03-26T02:58:40;101284.81;;;13.72
64296;BMP280;51082;38.236;15.432;2023-03-26T02:59:43;101295.28;;;13.72
64296;BMP280;51082;38.236;15.432;2023-03-26T03:00:46;101278.78;;;13.71
64296;BMP280;51082;38.236;15.432;2023-03-26T03:01:50;101289.25;;;13.71
64296;BMP280;51082;38.236;15.432;2023-03-26T03:02:52;101285.81;;;13.71
64296;BMP280;51082;38.236;15.432;2023-03-26T03:03:57;101290.00;;;13.65
64296;BMP280;51082;38.236;15.432;2023-03-26T03:05:01;101279.53;;;13.65
64296;BMP280;51082;38.236;15.432;2023-03-26T03:06:06;101278.75;;;13.65
64296;BMP280;51082;38.236;15.432;2023-03-26T03:07:09;101276.72;;;13.60
64296;BMP280;51082;38.236;15.432;2023-03-26T03:08:14;101271.47;;;13.60
64296;BMP280;51082;38.236;15.432;2023-03-26T03:09:18;101276.50;;;13.55
64296;BMP280;51082;38.236;15.432;2023-03-26T03:10:21;101280.28;;;13.53
64296;BMP280;51082;38.236;15.432;2023-03-26T03:11:23;101281.50;;;13.50
64296;BMP280;51082;38.236;15.432;2023-03-26T03:12:27;101279.91;;;13.49
64296;BMP280;51082;38.236;15.432;2023-03-26T03:13:28;101281.47;;;13.43
64296;BMP280;51082;38.236;15.432;2023-03-26T03:14:31;101281.66;;;13.42
64296;BMP280;51082;38.236;15.432;2023-03-26T03:15:33;101271.78;;;13.37
64296;BMP280;51082;38.236;15.432;2023-03-26T03:16:36;101276.22;;;13.37
64296;BMP280;51082;38.236;15.432;2023-03-26T03:17:38;101274.19;;;13.32
64296;BMP280;51082;38.236;15.432;2023-03-26T03:18:41;101269.53;;;13.34
64296;BMP280;51082;38.236;15.432;2023-03-26T03:19:43;101278.19;;;13.35
64296;BMP280;51082;38.236;15.432;2023-03-26T03:20:46;101273.94;;;13.34
64296;BMP280;51082;38.236;15.432;2023-03-26T03:21:47;101275.34;;;13.30
64296;BMP280;51082;38.236;15.432;2023-03-26T03:22:50;101283.03;;;13.31
64296;BMP280;51082;38.236;15.432;2023-03-26T03:23:52;101277.00;;;13.31
64296;BMP280;51082;38.236;15.432;2023-03-26T03:24:54;101288.63;;;13.28
64296;BMP280;51082;38.236;15.432;2023-03-26T03:26:00;101282.78;;;13.33
64296;BMP280;51082;38.236;15.432;2023-03-26T03:27:02;101287.03;;;13.34
64296;BMP280;51082;38.236;15.432;2023-03-26T03:28:07;101290.66;;;13.33
64296;BMP280;51082;38.236;15.432;2023-03-26T03:29:09;101291.44;;;13.33
64296;BMP280;51082;38.236;15.432;2023-03-26T03:30:12;101291.84;;;13.30
64296;BMP280;51082;38.236;15.432;2023-03-26T03:31:14;101292.03;;;13.29
64296;BMP280;51082;38.236;15.432;2023-03-26T03:32:17;101296.66;;;13.27
64296;BMP280;51082;38.236;15.432;2023-03-26T03:33:19;101292.63;;;13.24
64296;BMP280;51082;38.236;15.432;2023-03-26T03:34:21;101284.31;;;13.21
64296;BMP280;51082;38.236;15.432;2023-03-26T03:35:25;101296.16;;;13.16
64296;BMP280;51082;38.236;15.432;2023-03-26T03:36:29;101289.13;;;13.17
64296;BMP280;51082;38.236;15.432;2023-03-26T03:37:33;101285.50;;;13.11
64296;BMP280;51082;38.236;15.432;2023-03-26T03:38:35;101292.53;;;13.11
64296;BMP280;51082;38.236;15.432;2023-03-26T03:39:38;101284.06;;;13.09
64296;BMP280;51082;38.236;15.432;2023-03-26T03:40:39;101281.84;;;13.06
64296;BMP280;51082;38.236;15.432;2023-03-26T03:41:42;101289.69;;;13.06
64296;BMP280;51082;38.236;15.432;2023-03-26T03:42:44;101293.03;;;13.00
64296;BMP280;51082;38.236;15.432;2023-03-26T03:43:49;101292.50;;;13.04
64296;BMP280;51082;38.236;15.432;2023-03-26T03:44:52;101290.47;;;13.06
64296;BMP280;51082;38.236;15.432;2023-03-26T03:45:54;101292.72;;;13.09
64296;BMP280;51082;38.236;15.432;2023-03-26T03:46:56;101298.94;;;13.08
64296;BMP280;51082;38.236;15.432;2023-03-26T03:47:59;101300.13;;;13.06
64296;BMP280;51082;38.236;15.432;2023-03-26T03:49:00;101300.34;;;13.04
64296;BMP280;51082;38.236;15.432;2023-03-26T03:50:04;101309.41;;;13.08
64296;BMP280;51082;38.236;15.432;2023-03-26T03:51:06;101308.56;;;13.08
64296;BMP280;51082;38.236;15.432;2023-03-26T03:52:09;101312.97;;;13.07
64296;BMP280;51082;38.236;15.432;2023-03-26T03:53:11;101308.75;;;13.06
64296;BMP280;51082;38.236;15.432;2023-03-26T03:54:15;101300.91;;;13.06
64296;BMP280;51082;38.236;15.432;2023-03-26T03:55:19;101308.16;;;13.04
64296;BMP280;51082;38.236;15.432;2023-03-26T03:56:20;101307.16;;;13.05
64296;BMP280;51082;38.236;15.432;2023-03-26T03:57:24;101303.75;;;13.05
64296;BMP280;51082;38.236;15.432;2023-03-26T03:58:26;101304.16;;;13.08
64296;BMP280;51082;38.236;15.432;2023-03-26T03:59:32;101303.78;;;13.11
64296;BMP280;51082;38.236;15.432;2023-03-26T04:00:34;101312.19;;;13.07
64296;BMP280;51082;38.236;15.432;2023-03-26T04:01:38;101312.97;;;13.07
64296;BMP280;51082;38.236;15.432;2023-03-26T04:02:43;101309.41;;;13.08
64296;BMP280;51082;38.236;15.432;2023-03-26T04:03:46;101310.63;;;13.12
64296;BMP280;51082;38.236;15.432;2023-03-26T04:04:47;101310.63;;;13.12
64296;BMP280;51082;38.236;15.432;2023-03-26T04:05:52;101312.63;;;13.10
64296;BMP280;51082;38.236;15.432;2023-03-26T04:06:54;101312.25;;;13.13
64296;BMP280;51082;38.236;15.432;2023-03-26T04:07:57;101313.25;;;13.12
64296;BMP280;51082;38.236;15.432;2023-03-26T04:09:00;101323.06;;;13.10
64296;BMP280;51082;38.236;15.432;2023-03-26T04:10:04;101314.66;;;13.15
64296;BMP280;51082;38.236;15.432;2023-03-26T04:11:06;101320.69;;;13.15
64296;BMP280;51082;38.236;15.432;2023-03-26T04:12:08;101319.88;;;13.15
64296;BMP280;51082;38.236;15.432;2023-03-26T04:13:10;101319.47;;;13.11
64296;BMP280;51082;38.236;15.432;2023-03-26T04:14:13;101317.84;;;13.10
64296;BMP280;51082;38.236;15.432;2023-03-26T04:15:16;101315.06;;;13.12
64296;BMP280;51082;38.236;15.432;2023-03-26T04:16:19;101307.41;;;13.10
64296;BMP280;51082;38.236;15.432;2023-03-26T04:17:21;101311.63;;;13.11
64296;BMP280;51082;38.236;15.432;2023-03-26T04:18:24;101315.84;;;13.12
64296;BMP280;51082;38.236;15.432;2023-03-26T04:19:26;101314.84;;;13.13
64296;BMP280;51082;38.236;15.432;2023-03-26T04:20:29;101322.69;;;13.13
64296;BMP280;51082;38.236;15.432;2023-03-26T04:21:32;101310.44;;;13.14
64296;BMP280;51082;38.236;15.432;2023-03-26T04:22:38;101314.66;;;13.15
64296;BMP280;51082;38.236;15.432;2023-03-26T04:23:39;101317.28;;;13.15
64296;BMP280;51082;38.236;15.432;2023-03-26T04:24:42;101315.47;;;13.15
64296;BMP280;51082;38.236;15.432;2023-03-26T04:25:45;101320.69;;;13.15
64296;BMP280;51082;38.236;15.432;2023-03-26T04:26:49;101306.63;;;13.16
64296;BMP280;51082;38.236;15.432;2023-03-26T04:27:51;101313.50;;;13.17
64296;BMP280;51082;38.236;15.432;2023-03-26T04:28:57;101320.34;;;13.18
64296;BMP280;51082;38.236;15.432;2023-03-26T04:30:01;101316.47;;;13.14
64296;BMP280;51082;38.236;15.432;2023-03-26T04:31:09;101330.34;;;13.15
64296;BMP280;51082;38.236;15.432;2023-03-26T04:32:18;101325.91;;;13.15
64296;BMP280;51082;38.236;15.432;2023-03-26T04:33:24;101317.88;;;13.17
64296;BMP280;51082;38.236;15.432;2023-03-26T04:34:28;101321.69;;;13.14
64296;BMP280;51082;38.236;15.432;2023-03-26T04:35:31;101326.31;;;13.12
64296;BMP280;51082;38.236;15.432;2023-03-26T04:36:34;101326.94;;;13.14
64296;BMP280;51082;38.236;15.432;2023-03-26T04:37:38;101332.38;;;13.13
64296;BMP280;51082;38.236;15.432;2023-03-26T04:38:42;101319.47;;;13.11
64296;BMP280;51082;38.236;15.432;2023-03-26T04:39:46;101325.06;;;13.08
64296;BMP280;51082;38.236;15.432;2023-03-26T04:40:47;101325.31;;;13.13
64296;BMP280;51082;38.236;15.432;2023-03-26T04:41:50;101321.91;;;13.13
64296;BMP280;51082;38.236;15.432;2023-03-26T04:42:52;101325.50;;;13.12
64296;BMP280;51082;38.236;15.432;2023-03-26T04:43:58;101331.53;;;13.12
64296;BMP280;51082;38.236;15.432;2023-03-26T04:45:02;101321.47;;;13.09
64296;BMP280;51082;38.236;15.432;2023-03-26T04:46:07;101315.00;;;13.05
64296;BMP280;51082;38.236;15.432;2023-03-26T04:47:10;101320.59;;;13.02
64296;BMP280;51082;38.236;15.432;2023-03-26T04:48:13;101322.59;;;13.00
64296;BMP280;51082;38.236;15.432;2023-03-26T04:49:15;101316.16;;;13.03
64296;BMP280;51082;38.236;15.432;2023-03-26T04:50:17;101321.81;;;13.06
64296;BMP280;51082;38.236;15.432;2023-03-26T04:51:24;101323.44;;;13.07
64296;BMP280;51082;38.236;15.432;2023-03-26T04:52:27;101323.06;;;13.10
64296;BMP280;51082;38.236;15.432;2023-03-26T04:53:30;101318.22;;;13.07
64296;BMP280;51082;38.236;15.432;2023-03-26T04:54:31;101328.66;;;13.07
64296;BMP280;51082;38.236;15.432;2023-03-26T04:55:40;101326.47;;;13.04
64296;BMP280;51082;38.236;15.432;2023-03-26T04:56:47;101325.47;;;13.05
64296;BMP280;51082;38.236;15.432;2023-03-26T04:57:54;101323.84;;;13.04
64296;BMP280;51082;38.236;15.432;2023-03-26T04:58:59;101327.84;;;13.07
64296;BMP280;51082;38.236;15.432;2023-03-26T05:00:01;101330.31;;;13.08
64296;BMP280;51082;38.236;15.432;2023-03-26T05:01:18;101335.53;;;13.08
64296;BMP280;51082;38.236;15.432;2023-03-26T05:02:20;101338.31;;;13.07
64296;BMP280;51082;38.236;15.432;2023-03-26T05:03:23;101341.38;;;13.10
64296;BMP280;51082;38.236;15.432;2023-03-26T05:04:25;101341.00;;;13.13
64296;BMP280;51082;38.236;15.432;2023-03-26T05:05:29;101349.25;;;13.17
64296;BMP280;51082;38.236;15.432;2023-03-26T05:06:31;101347.03;;;13.14
64296;BMP280;51082;38.236;15.432;2023-03-26T05:07:34;101353.63;;;13.10
64296;BMP280;51082;38.236;15.432;2023-03-26T05:08:36;101357.41;;;13.07
64296;BMP280;51082;38.236;15.432;2023-03-26T05:09:38;101354.44;;;13.10
64296;BMP280;51082;38.236;15.432;2023-03-26T05:10:40;101362.47;;;13.09
64296;BMP280;51082;38.236;15.432;2023-03-26T05:11:43;101363.63;;;13.06
64296;BMP280;51082;38.236;15.432;2023-03-26T05:12:44;101361.25;;;13.05
64296;BMP280;51082;38.236;15.432;2023-03-26T05:13:47;101359.78;;;13.02
64296;BMP280;51082;38.236;15.432;2023-03-26T05:14:49;101360.44;;;13.04
64296;BMP280;51082;38.236;15.432;2023-03-26T05:15:52;101352.94;;;13.01
64296;BMP280;51082;38.236;15.432;2023-03-26T05:16:55;101351.84;;;13.10
64296;BMP280;51082;38.236;15.432;2023-03-26T05:17:58;101359.06;;;13.08
64296;BMP280;51082;38.236;15.432;2023-03-26T05:18:59;101361.03;;;13.06
64296;BMP280;51082;38.236;15.432;2023-03-26T05:20:02;101355.44;;;13.09
64296;BMP280;51082;38.236;15.432;2023-03-26T05:21:04;101356.81;;;13.05
64296;BMP280;51082;38.236;15.432;2023-03-26T05:22:08;101355.22;;;13.04
64296;BMP280;51082;38.236;15.432;2023-03-26T05:23:09;101362.09;;;13.12
64296;BMP280;51082;38.236;15.432;2023-03-26T05:24:12;101363.28;;;13.09
64296;BMP280;51082;38.236;15.432;2023-03-26T05:25:14;101362.09;;;13.12
64296;BMP280;51082;38.236;15.432;2023-03-26T05:26:17;101368.13;;;13.12
64296;BMP280;51082;38.236;15.432;2023-03-26T05:27:18;101366.50;;;13.11
64296;BMP280;51082;38.236;15.432;2023-03-26T05:28:21;101361.72;;;13.15
64296;BMP280;51082;38.236;15.432;2023-03-26T05:29:24;101370.00;;;13.18
64296;BMP280;51082;38.236;15.432;2023-03-26T05:30:27;101369.00;;;13.20
64296;BMP280;51082;38.236;15.432;2023-03-26T05:31:29;101377.84;;;13.18
64296;BMP280;51082;38.236;15.432;2023-03-26T05:32:34;101370.59;;;13.21
64296;BMP280;51082;38.236;15.432;2023-03-26T05:33:35;101374.22;;;13.20
64296;BMP280;51082;38.236;15.432;2023-03-26T05:34:39;101376.03;;;13.19
64296;BMP280;51082;38.236;15.432;2023-03-26T05:35:40;101380.31;;;13.27
64296;BMP280;51082;38.236;15.432;2023-03-26T05:36:43;101379.69;;;13.25
64296;BMP280;51082;38.236;15.432;2023-03-26T05:37:45;101379.88;;;13.23
64296;BMP280;51082;38.236;15.432;2023-03-26T05:38:49;101373.06;;;13.29
64296;BMP280;51082;38.236;15.432;2023-03-26T05:39:53;101385.53;;;13.27
64296;BMP280;51082;38.236;15.432;2023-03-26T05:40:59;101385.97;;;13.30
64296;BMP280;51082;38.236;15.432;2023-03-26T05:42:02;101377.31;;;13.30
64296;BMP280;51082;38.236;15.432;2023-03-26T05:43:07;101376.56;;;13.36
64296;BMP280;51082;38.236;15.432;2023-03-26T05:44:09;101389.63;;;13.36
64296;BMP280;51082;38.236;15.432;2023-03-26T05:45:14;101379.78;;;13.38
64296;BMP280;51082;38.236;15.432;2023-03-26T05:46:15;101384.22;;;13.37
64296;BMP280;51082;38.236;15.432;2023-03-26T05:47:20;101380.84;;;13.43
64296;BMP280;51082;38.236;15.432;2023-03-26T05:48:24;101384.88;;;13.46
64296;BMP280;51082;38.236;15.432;2023-03-26T05:49:27;101383.28;;;13.45
64296;BMP280;51082;38.236;15.432;2023-03-26T05:50:29;101384.50;;;13.49
64296;BMP280;51082;38.236;15.432;2023-03-26T05:51:31;101391.34;;;13.50
64296;BMP280;51082;38.236;15.432;2023-03-26T05:52:33;101385.31;;;13.50
64296;BMP280;51082;38.236;15.432;2023-03-26T05:53:36;101386.94;;;13.51
64296;BMP280;51082;38.236;15.432;2023-03-26T05:54:37;101378.09;;;13.52
64296;BMP280;51082;38.236;15.432;2023-03-26T05:55:42;101386.97;;;13.57
64296;BMP280;51082;38.236;15.432;2023-03-26T05:56:45;101382.16;;;13.61
64296;BMP280;51082;38.236;15.432;2023-03-26T05:57:48;101379.38;;;13.62